Time;durP1;ratioP1;P1;durP2;ratioP2;P2;SDS_P1;SDS_P2;PMS_P1;PMS_P2;Temp;Humidity;BMP_temperature;BMP_pressure;BME280_temperature;BME280_humidity;BME280_pressure;Samples;Min_cycle;Max_cycle;Signal;HPM_P1;HPM_P2
2021/11/28 00:01:38;;;;;;;0.50;0.50;;;0.30;1.40;;;1.28;100.00;93336.53;646803;212;31517;-77
2021/11/28 00:04:25;;;;;;;0.40;0.40;;;0.30;1.40;;;1.30;100.00;93335.87;646169;212;31673;-77
2021/11/28 00:07:20;;;;;;;0.50;0.50;;;0.30;1.40;;;1.37;100.00;93334.13;647587;212;31528;-77
2021/11/28 00:10:08;;;;;;;0.77;0.77;;;0.30;1.40;;;1.32;100.00;93331.35;649593;216;31781;-76
2021/11/28 00:12:48;;;;;;;0.90;0.37;;;0.30;1.40;;;1.29;100.00;93331.92;647605;212;31479;-77
2021/11/28 00:15:30;;;;;;;0.50;0.50;;;0.30;1.40;;;1.14;100.00;93318.88;648000;216;31509;-74
2021/11/28 00:18:12;;;;;;;1.00;0.70;;;0.20;1.40;;;1.28;100.00;93315.19;648220;212;31481;-75
2021/11/28 00:21:00;;;;;;;1.00;0.70;;;0.30;1.40;;;1.27;100.00;93314.08;647264;216;31489;-77
2021/11/28 00:23:50;;;;;;;0.70;0.62;;;0.20;1.40;;;1.16;100.00;93315.22;645013;212;31500;-74
2021/11/28 00:26:32;;;;;;;0.40;0.40;;;0.20;1.40;;;1.11;100.00;93311.34;633493;222;31713;-75
2021/11/28 00:29:20;;;;;;;0.40;0.40;;;0.20;1.40;;;1.16;100.00;93314.47;645498;216;31520;-77
2021/11/28 00:32:05;;;;;;;0.50;0.40;;;0.30;1.40;;;1.15;100.00;93317.68;645846;212;32421;-78
2021/11/28 00:35:51;;;;;;;0.80;0.60;;;0.30;1.40;;;1.05;100.00;93316.64;650022;216;31564;-77
2021/11/28 00:38:37;;;;;;;0.50;0.40;;;0.20;1.40;;;1.02;100.00;93317.88;645420;216;31536;-77
2021/11/28 00:41:21;;;;;;;1.00;0.90;;;0.20;1.40;;;1.09;100.00;93323.49;645713;216;31688;-77
2021/11/28 00:44:09;;;;;;;0.60;0.50;;;0.20;1.40;;;1.17;100.00;93327.30;647633;212;31489;-77
2021/11/28 00:46:50;;;;;;;2.40;0.50;;;0.30;1.40;;;1.13;100.00;93327.61;646543;212;31544;-77
2021/11/28 00:49:36;;;;;;;0.57;0.50;;;0.40;1.40;;;1.24;100.00;93327.86;648834;216;31552;-76
2021/11/28 00:52:16;;;;;;;2.03;0.50;;;0.40;1.40;;;1.25;100.00;93323.58;646079;216;31660;-74
2021/11/28 00:54:59;;;;;;;0.93;0.40;;;0.40;1.40;;;1.23;100.00;93323.23;650037;212;33132;-77
2021/11/28 00:57:41;;;;;;;0.50;0.50;;;0.40;1.40;;;1.17;100.00;93321.54;646066;212;31572;-77
2021/11/28 01:00:29;;;;;;;0.90;0.50;;;0.40;1.40;;;1.26;100.00;93330.01;647999;212;31533;-75
2021/11/28 01:03:17;;;;;;;0.68;0.68;;;0.40;1.40;;;1.33;100.00;93336.72;648432;212;32056;-77
2021/11/28 01:06:00;;;;;;;1.40;0.40;;;0.50;1.40;;;1.35;100.00;93332.41;640403;212;31648;-78
2021/11/28 01:08:43;;;;;;;1.40;1.20;;;0.50;1.40;;;1.40;100.00;93337.42;620584;226;31873;-76
2021/11/28 01:11:31;;;;;;;0.50;0.40;;;0.50;1.40;;;1.35;100.00;93340.47;647039;216;31529;-78
2021/11/28 01:14:13;;;;;;;0.40;0.30;;;0.50;1.40;;;1.39;100.00;93346.95;647809;212;31732;-76
2021/11/28 01:16:56;;;;;;;0.40;0.30;;;0.50;1.40;;;1.34;100.00;93352.92;647538;212;32486;-75
2021/11/28 01:19:51;;;;;;;0.40;0.30;;;0.50;1.40;;;1.36;100.00;93344.91;647209;216;31524;-77
2021/11/28 01:22:32;;;;;;;0.40;0.30;;;0.50;1.40;;;1.35;100.00;93343.88;647639;216;31467;-75
2021/11/28 01:25:17;;;;;;;0.40;0.30;;;0.50;1.40;;;1.42;100.00;93332.47;621495;226;31866;-75
2021/11/28 01:28:05;;;;;;;0.40;0.32;;;0.40;1.40;;;1.27;100.00;93344.55;619582;225;31986;-78
2021/11/28 01:30:52;;;;;;;0.60;0.50;;;0.40;1.40;;;1.26;100.00;93349.80;647653;212;32261;-74
2021/11/28 01:35:56;;;;;;;0.40;0.40;;;0.50;1.40;;;1.28;100.00;93356.97;649431;212;31588;-77
2021/11/28 01:38:41;;;;;;;0.55;0.55;;;0.50;1.40;;;1.37;100.00;93355.27;649966;212;31803;-76
2021/11/28 01:41:25;;;;;;;0.40;0.40;;;0.50;1.40;;;1.38;100.00;93354.28;648711;212;31840;-74
2021/11/28 01:44:12;;;;;;;0.70;0.32;;;0.60;1.40;;;1.34;100.00;93359.91;647224;216;31547;-78
2021/11/28 01:47:00;;;;;;;0.40;0.30;;;0.60;1.40;;;1.34;100.00;93366.15;617574;222;31824;-76
2021/11/28 01:49:48;;;;;;;0.53;0.53;;;0.60;1.40;;;1.34;100.00;93363.86;653852;216;23452;-76
2021/11/28 01:52:36;;;;;;;0.40;0.40;;;0.70;1.40;;;1.41;100.00;93356.88;646427;212;32163;-74
2021/11/28 01:55:18;;;;;;;0.40;0.30;;;0.70;1.40;;;1.41;100.00;93358.11;646288;212;31514;-74
2021/11/28 01:58:05;;;;;;;0.50;0.40;;;0.70;1.40;;;1.45;100.00;93352.91;619544;226;31982;-77
2021/11/28 02:00:48;;;;;;;0.40;0.32;;;0.60;1.40;;;1.44;100.00;93352.01;647540;212;31566;-77
2021/11/28 02:03:36;;;;;;;0.40;0.30;;;0.60;1.40;;;1.33;100.00;93353.47;645076;216;31544;-77
2021/11/28 02:06:20;;;;;;;0.73;0.47;;;0.60;1.40;;;1.34;100.00;93361.98;645713;216;31499;-77
2021/11/28 02:09:07;;;;;;;0.43;0.20;;;0.60;1.40;;;1.32;100.00;93367.70;646927;216;31571;-75
2021/11/28 02:11:52;;;;;;;0.40;0.20;;;0.60;1.40;;;1.29;100.00;93364.38;645157;212;43324;-74
2021/11/28 02:14:34;;;;;;;1.00;0.60;;;0.60;1.40;;;1.26;100.00;93362.52;646693;212;31599;-76
2021/11/28 02:17:21;;;;;;;0.40;0.30;;;0.60;1.40;;;1.25;100.00;93353.66;648871;212;31556;-77
2021/11/28 02:20:03;;;;;;;0.40;0.30;;;0.60;1.40;;;1.30;100.00;93344.72;647958;212;31848;-77
2021/11/28 02:22:47;;;;;;;0.50;0.40;;;0.60;1.40;;;1.28;100.00;93341.33;649555;216;31612;-76
2021/11/28 02:25:35;;;;;;;0.55;0.30;;;0.60;1.40;;;1.28;100.00;93335.68;645923;216;31585;-77
2021/11/28 02:28:16;;;;;;;0.90;0.50;;;0.60;1.40;;;1.26;100.00;93334.66;647940;216;31526;-77
2021/11/28 02:30:58;;;;;;;0.50;0.40;;;0.60;1.40;;;1.37;100.00;93328.36;647615;216;31521;-77
2021/11/28 02:35:56;;;;;;;0.40;0.30;;;0.60;1.40;;;1.30;100.00;93320.53;647494;212;31835;-77
2021/11/28 02:38:40;;;;;;;0.40;0.20;;;0.60;1.40;;;1.23;100.00;93313.56;648741;216;31515;-77
2021/11/28 02:41:28;;;;;;;0.40;0.30;;;0.50;1.40;;;1.27;100.00;93323.09;647546;212;31486;-77
2021/11/28 02:44:10;;;;;;;0.40;0.30;;;0.50;1.40;;;1.18;100.00;93328.09;648726;216;31976;-77
2021/11/28 02:46:51;;;;;;;0.40;0.20;;;0.50;1.40;;;1.19;100.00;93329.99;645271;216;31500;-77
2021/11/28 02:49:34;;;;;;;0.40;0.30;;;0.50;1.40;;;1.20;100.00;93329.00;648240;212;42068;-77
2021/11/28 02:52:19;;;;;;;0.40;0.30;;;0.50;1.40;;;1.32;100.00;93330.23;649631;216;32041;-78
2021/11/28 02:55:01;;;;;;;0.40;0.30;;;0.50;1.40;;;1.35;100.00;93318.78;647473;212;31473;-76
2021/11/28 02:57:42;;;;;;;0.90;0.30;;;0.50;1.40;;;1.24;100.00;93307.14;648331;212;32198;-78
2021/11/28 03:00:24;;;;;;;0.40;0.40;;;0.50;1.40;;;1.30;100.00;93302.13;647416;212;32054;-77
2021/11/28 03:03:12;;;;;;;0.40;0.30;;;0.50;1.40;;;1.28;100.00;93302.86;618271;222;32097;-77
2021/11/28 03:05:53;;;;;;;0.40;0.30;;;0.50;1.40;;;1.38;100.00;93296.68;640431;212;31698;-74
2021/11/28 03:08:35;;;;;;;1.00;0.30;;;0.50;1.40;;;1.40;100.00;93291.02;647912;216;31505;-74
2021/11/28 03:11:17;;;;;;;0.40;0.40;;;0.40;1.40;;;1.33;100.00;93289.89;621751;226;31967;-74
2021/11/28 03:14:04;;;;;;;0.40;0.30;;;0.40;1.40;;;1.21;100.00;93287.73;648438;216;31691;-77
2021/11/28 03:16:52;;;;;;;0.65;0.47;;;0.40;1.40;;;1.28;100.00;93295.10;621653;226;32183;-74
2021/11/28 03:19:36;;;;;;;0.40;0.30;;;0.40;1.40;;;1.27;100.00;93298.75;649089;216;31554;-77
2021/11/28 03:22:17;;;;;;;0.40;0.30;;;0.40;1.40;;;1.21;100.00;93293.48;649059;216;31544;-77
2021/11/28 03:25:09;;;;;;;0.60;0.60;;;0.40;1.40;;;1.32;100.00;93289.72;648461;212;32113;-74
2021/11/28 03:27:53;;;;;;;0.50;0.50;;;0.40;1.40;;;1.22;100.00;93293.52;649771;212;42103;-77
2021/11/28 03:30:34;;;;;;;0.40;0.30;;;0.40;1.40;;;1.27;100.00;93291.45;648033;212;31488;-77
2021/11/28 03:35:51;;;;;;;2.20;0.50;;;0.40;1.40;;;1.16;100.00;93290.35;619552;222;32087;-77
2021/11/28 03:38:35;;;;;;;0.40;0.30;;;0.30;1.40;;;1.06;100.00;93291.95;647815;216;31506;-77
2021/11/28 03:41:17;;;;;;;0.40;0.30;;;0.20;1.40;;;1.07;100.00;93291.09;648343;212;31534;-74
2021/11/28 03:46:35;;;;;;;0.40;0.20;;;0.10;1.40;;;1.12;100.00;93293.31;646008;212;35401;-77
2021/11/28 03:49:16;;;;;;;0.40;0.20;;;0.10;1.40;;;1.12;100.00;93290.06;650614;216;31529;-78
2021/11/28 03:51:58;;;;;;;0.40;0.30;;;0.10;1.40;;;1.10;100.00;93293.81;646698;216;31493;-77
2021/11/28 03:54:42;;;;;;;0.40;0.30;;;0.10;1.40;;;1.17;100.00;93283.70;646277;216;31458;-77
2021/11/28 03:57:25;;;;;;;0.50;0.30;;;0.20;1.40;;;1.16;100.00;93286.13;646666;216;31530;-77
2021/11/28 04:00:10;;;;;;;0.80;0.60;;;0.20;1.40;;;1.10;100.00;93284.05;647378;216;31544;-77
2021/11/28 04:02:52;;;;;;;0.90;0.50;;;0.20;1.40;;;1.02;100.00;93283.73;648905;216;31851;-78
2021/11/28 04:05:36;;;;;;;0.60;0.30;;;0.30;1.40;;;1.08;100.00;93284.89;637503;216;31667;-78
2021/11/28 04:08:24;;;;;;;0.70;0.40;;;0.30;1.40;;;1.20;100.00;93279.09;647921;216;31512;-77
2021/11/28 04:11:12;;;;;;;0.80;0.80;;;0.30;1.40;;;1.10;100.00;93275.77;647419;212;31546;-77
2021/11/28 04:14:03;;;;;;;0.40;0.30;;;0.30;1.40;;;1.15;100.00;93275.27;644938;216;31586;-75
2021/11/28 04:16:45;;;;;;;1.10;1.00;;;0.20;1.40;;;1.06;100.00;93278.85;646527;216;31489;-74
2021/11/28 04:19:33;;;;;;;0.40;0.30;;;0.30;1.40;;;0.98;100.00;93281.45;647140;212;31622;-77
2021/11/28 04:22:17;;;;;;;0.40;0.20;;;0.20;1.40;;;0.98;100.00;93286.28;618288;222;31896;-76
2021/11/28 04:25:05;;;;;;;0.90;0.90;;;0.20;1.40;;;1.04;100.00;93281.81;648291;216;31743;-76
2021/11/28 04:27:46;;;;;;;0.40;0.30;;;0.20;1.40;;;1.12;100.00;93280.45;617982;222;42597;-76
2021/11/28 04:30:28;;;;;;;0.80;0.50;;;0.20;1.40;;;1.09;100.00;93279.54;648920;216;31685;-76
2021/11/28 04:35:53;;;;;;;0.40;0.30;;;0.20;1.40;;;1.09;100.00;93272.59;647685;216;42723;-77
2021/11/28 04:38:37;;;;;;;0.50;0.50;;;0.20;1.40;;;1.01;100.00;93277.02;647969;212;31489;-75
2021/11/28 04:41:25;;;;;;;1.00;0.50;;;0.20;1.40;;;1.04;100.00;93279.63;648139;213;32020;-77
2021/11/28 04:44:06;;;;;;;0.40;0.40;;;0.20;1.40;;;1.01;100.00;93273.14;646747;212;31777;-77
2021/11/28 04:46:54;;;;;;;0.50;0.30;;;0.20;1.40;;;1.02;100.00;93273.11;647101;216;31948;-74
2021/11/28 04:49:36;;;;;;;0.90;0.90;;;0.20;1.40;;;0.97;100.00;93280.05;620521;226;32091;-74
2021/11/28 04:54:59;;;;;;;0.60;0.40;;;0.20;1.40;;;1.03;100.00;93274.37;620768;226;31819;-76
2021/11/28 04:57:42;;;;;;;0.40;0.25;;;0.20;1.40;;;1.15;100.00;93276.55;646732;212;31534;-77
2021/11/28 05:00:30;;;;;;;0.60;0.60;;;0.20;1.40;;;1.10;100.00;93280.21;631536;222;31694;-77
2021/11/28 05:03:18;;;;;;;0.60;0.40;;;0.20;1.40;;;1.10;100.00;93280.63;647502;216;31500;-75
2021/11/28 05:06:00;;;;;;;3.70;0.70;;;0.20;1.40;;;1.06;100.00;93279.00;640388;216;31656;-76
2021/11/28 05:11:22;;;;;;;0.43;0.37;;;0.30;1.40;;;1.06;100.00;93279.06;648096;216;42476;-77
2021/11/28 05:14:09;;;;;;;0.57;0.50;;;0.20;1.40;;;1.06;100.00;93284.23;649264;212;31501;-74
2021/11/28 05:16:57;;;;;;;0.60;0.30;;;0.30;1.40;;;1.11;100.00;93283.33;623641;226;31842;-77
2021/11/28 05:19:45;;;;;;;0.50;0.50;;;0.30;1.40;;;1.02;100.00;93285.66;650153;216;32040;-74
2021/11/28 05:22:33;;;;;;;0.40;0.30;;;0.30;1.40;;;1.09;100.00;93291.37;649137;216;32362;-77
2021/11/28 05:25:23;;;;;;;0.80;0.40;;;0.30;1.40;;;1.12;100.00;93288.14;647128;216;31503;-74
2021/11/28 05:28:09;;;;;;;0.55;0.40;;;0.30;1.40;;;1.12;100.00;93285.95;648493;216;31491;-77
2021/11/28 05:30:55;;;;;;;0.40;0.30;;;0.30;1.40;;;1.19;100.00;93286.61;646738;216;31522;-74
2021/11/28 05:35:51;;;;;;;1.00;0.40;;;0.30;1.40;;;1.17;100.00;93283.50;621720;225;31825;-77
2021/11/28 05:38:33;;;;;;;0.40;0.30;;;0.30;1.40;;;1.08;100.00;93286.23;647914;216;31455;-77
2021/11/28 05:41:14;;;;;;;1.60;0.60;;;0.30;1.40;;;1.03;100.00;93285.41;647233;212;31647;-77
2021/11/28 05:43:56;;;;;;;1.30;0.70;;;0.30;1.40;;;1.09;100.00;93290.74;648182;212;31505;-75
2021/11/28 05:46:44;;;;;;;0.60;0.40;;;0.30;1.40;;;1.14;100.00;93294.34;646415;216;31733;-74
2021/11/28 05:49:25;;;;;;;0.50;0.20;;;0.30;1.40;;;1.10;100.00;93301.97;648525;216;31479;-74
2021/11/28 05:52:07;;;;;;;0.60;0.40;;;0.30;1.40;;;1.01;100.00;93306.00;644502;213;31512;-74
2021/11/28 05:54:56;;;;;;;0.50;0.50;;;0.30;1.40;;;1.03;100.00;93303.72;646492;215;31557;-77
2021/11/28 05:57:42;;;;;;;0.50;0.30;;;0.30;1.40;;;0.95;100.00;93304.56;645391;212;31506;-74
2021/11/28 06:00:24;;;;;;;0.62;0.43;;;0.30;1.40;;;1.02;100.00;93309.98;647016;212;31507;-74
2021/11/28 06:03:12;;;;;;;2.70;0.47;;;0.40;1.40;;;1.08;100.00;93307.61;647956;212;31416;-77
2021/11/28 06:06:00;;;;;;;0.40;0.20;;;0.40;1.40;;;1.21;100.00;93309.73;643053;212;31798;-74
2021/11/28 06:08:41;;;;;;;0.40;0.30;;;0.50;1.40;;;1.24;100.00;93304.31;647185;212;31652;-73
2021/11/28 06:11:23;;;;;;;0.90;0.77;;;0.40;1.40;;;1.26;100.00;93306.09;648079;216;31577;-75
2021/11/28 06:14:11;;;;;;;0.50;0.50;;;0.50;1.40;;;1.21;100.00;93303.00;642666;217;31758;-77
2021/11/28 06:16:58;;;;;;;0.70;0.50;;;0.50;1.40;;;1.30;100.00;93303.52;646998;216;37765;-74
2021/11/28 06:19:40;;;;;;;0.40;0.30;;;0.50;1.40;;;1.36;100.00;93309.31;649843;212;31569;-74
2021/11/28 06:22:28;;;;;;;0.50;0.40;;;0.60;1.40;;;1.44;100.00;93312.56;650682;216;31845;-78
2021/11/28 06:25:15;;;;;;;0.50;0.40;;;0.70;1.40;;;1.45;100.00;93316.81;648213;216;31470;-77
2021/11/28 06:28:03;;;;;;;1.00;0.70;;;0.60;1.40;;;1.31;100.00;93314.51;648251;212;31532;-77
2021/11/28 06:30:51;;;;;;;0.40;0.30;;;0.50;1.40;;;1.29;100.00;93319.47;647234;216;42693;-74
2021/11/28 06:35:54;;;;;;;0.40;0.30;;;0.50;1.40;;;1.27;100.00;93322.61;646707;212;31551;-77
2021/11/28 06:38:43;;;;;;;0.50;0.40;;;0.40;1.40;;;1.26;100.00;93321.83;621327;226;31961;-75
2021/11/28 06:41:33;;;;;;;0.40;0.40;;;0.40;1.40;;;1.15;100.00;93321.86;619776;222;31789;-77
2021/11/28 06:44:17;;;;;;;0.40;0.30;;;0.30;1.40;;;1.17;100.00;93324.01;646781;212;31504;-76
2021/11/28 06:46:58;;;;;;;0.40;0.40;;;0.30;1.40;;;1.13;100.00;93326.42;648522;212;31501;-74
2021/11/28 06:49:43;;;;;;;0.60;0.30;;;0.30;1.40;;;1.15;100.00;93331.40;646640;216;31520;-77
2021/11/28 06:52:30;;;;;;;0.40;0.30;;;0.30;1.40;;;1.01;100.00;93334.92;646790;216;31479;-74
2021/11/28 06:55:17;;;;;;;0.40;0.30;;;0.20;1.40;;;1.00;100.00;93339.95;645974;216;31499;-77
2021/11/28 06:57:59;;;;;;;0.40;0.35;;;0.20;1.40;;;0.96;100.00;93337.20;646921;216;31577;-77
2021/11/28 07:00:43;;;;;;;0.60;0.50;;;0.20;1.40;;;1.14;100.00;93332.87;646023;212;31509;-73
2021/11/28 07:03:27;;;;;;;0.40;0.40;;;0.20;1.40;;;1.08;100.00;93330.83;621344;222;42768;-77
2021/11/28 07:06:09;;;;;;;0.50;0.40;;;0.20;1.40;;;0.97;100.00;93337.98;638746;212;31713;-76
2021/11/28 07:08:55;;;;;;;0.70;0.47;;;0.10;1.40;;;1.06;100.00;93333.42;619921;226;32025;-77
2021/11/28 07:11:38;;;;;;;0.82;0.82;;;0.20;1.40;;;1.02;100.00;93335.11;645640;212;31532;-74
2021/11/28 07:14:20;;;;;;;0.70;0.70;;;0.20;1.40;;;1.04;100.00;93337.14;618908;226;31908;-74
2021/11/28 07:17:02;;;;;;;0.70;0.60;;;0.20;1.40;;;1.02;100.00;93334.15;646787;216;31768;-74
2021/11/28 07:19:44;;;;;;;0.90;0.52;;;0.20;1.40;;;0.92;100.00;93337.89;646763;216;31510;-73
2021/11/28 07:22:33;;;;;;;0.60;0.60;;;0.20;1.40;;;1.05;100.00;93344.97;648511;212;31524;-77
2021/11/28 07:25:13;;;;;;;0.70;0.50;;;0.20;1.40;;;0.93;100.00;93347.75;617566;222;31980;-77
2021/11/28 07:27:56;;;;;;;0.80;0.80;;;0.20;1.40;;;0.94;100.00;93344.70;646722;212;31577;-77
2021/11/28 07:30:42;;;;;;;0.60;0.55;;;0.10;1.40;;;1.08;100.00;93343.03;646584;216;31493;-73
2021/11/28 07:35:52;;;;;;;0.90;0.70;;;0.20;1.40;;;1.08;100.00;93343.15;646903;216;31565;-77
2021/11/28 07:38:33;;;;;;;0.90;0.70;;;0.20;1.40;;;1.08;100.00;93345.30;621406;222;31870;-74
2021/11/28 07:41:18;;;;;;;1.60;0.60;;;0.20;1.40;;;1.16;100.00;93343.60;646990;216;31657;-77
2021/11/28 07:44:06;;;;;;;0.80;0.50;;;0.20;1.40;;;1.18;100.00;93340.99;645680;216;42386;-76
2021/11/28 07:46:50;;;;;;;1.10;0.50;;;0.30;1.40;;;1.31;100.00;93340.98;647047;216;31496;-77
2021/11/28 07:49:32;;;;;;;1.30;0.70;;;0.30;1.40;;;1.33;100.00;93338.11;651649;216;31576;-75
2021/11/28 07:52:20;;;;;;;0.80;0.80;;;0.30;1.40;;;1.43;100.00;93335.11;647491;216;31575;-75
2021/11/28 07:55:08;;;;;;;0.80;0.80;;;0.30;1.40;;;1.47;100.00;93338.19;648217;212;31941;-77
2021/11/28 07:57:53;;;;;;;1.02;0.90;;;0.40;1.40;;;1.53;100.00;93340.80;644290;216;31520;-77
2021/11/28 08:00:35;;;;;;;0.55;0.30;;;0.40;1.40;;;1.47;100.00;93338.33;620701;222;32047;-78
2021/11/28 08:03:22;;;;;;;0.40;0.28;;;0.30;1.40;;;1.25;100.00;93340.87;646886;216;31546;-74
2021/11/28 08:06:04;;;;;;;0.88;0.47;;;0.30;1.40;;;1.34;100.00;93341.66;615504;222;32113;-75
2021/11/28 08:08:52;;;;;;;0.60;0.60;;;0.30;1.40;;;1.27;100.00;93347.00;649077;212;42105;-77
2021/11/28 08:11:34;;;;;;;0.80;0.70;;;0.30;1.40;;;1.38;100.00;93346.23;649671;216;31479;-76
2021/11/28 08:14:15;;;;;;;0.90;0.60;;;0.40;1.40;;;1.48;100.00;93345.15;647459;216;31480;-77
2021/11/28 08:16:57;;;;;;;0.50;0.40;;;0.50;1.40;;;1.49;100.00;93344.09;648314;216;31581;-77
2021/11/28 08:19:40;;;;;;;0.60;0.20;;;0.50;1.40;;;1.37;100.00;93350.89;647898;212;31537;-77
2021/11/28 08:22:20;;;;;;;0.60;0.60;;;0.50;1.40;;;1.46;100.00;93351.59;649162;212;31518;-77
2021/11/28 08:25:08;;;;;;;1.03;0.40;;;0.50;1.40;;;1.43;100.00;93348.31;645720;216;33469;-77
2021/11/28 08:27:50;;;;;;;0.40;0.40;;;0.50;1.40;;;1.58;100.00;93359.20;616743;226;31870;-75
2021/11/28 08:30:32;;;;;;;0.40;0.30;;;0.50;1.40;;;1.49;100.00;93354.87;646968;216;31498;-75
2021/11/28 08:35:51;;;;;;;0.40;0.30;;;0.60;1.40;;;1.58;100.00;93356.44;622061;226;42506;-78
2021/11/28 08:38:33;;;;;;;0.40;0.30;;;0.60;1.40;;;1.86;100.00;93359.17;648647;216;31494;-78
2021/11/28 08:41:15;;;;;;;1.00;0.50;;;0.70;1.40;;;1.95;100.00;93361.28;646827;216;31595;-78
2021/11/28 08:43:57;;;;;;;0.50;0.50;;;0.80;1.40;;;1.79;100.00;93361.73;645496;212;31547;-77
2021/11/28 08:46:47;;;;;;;0.80;0.80;;;0.80;1.40;;;1.88;100.00;93364.87;647093;212;31561;-75
2021/11/28 08:49:36;;;;;;;0.50;0.50;;;1.00;1.40;;;1.98;100.00;93362.49;648268;216;31496;-77
2021/11/28 08:52:18;;;;;;;0.57;0.40;;;0.90;1.40;;;2.12;100.00;93366.30;621177;226;31842;-78
2021/11/28 08:54:59;;;;;;;0.65;0.65;;;1.10;1.40;;;2.15;100.00;93365.77;643178;217;31519;-77
2021/11/28 08:57:41;;;;;;;0.70;0.50;;;1.20;1.40;;;2.58;100.00;93362.63;649723;216;31528;-77
2021/11/28 09:00:32;;;;;;;0.80;0.50;;;1.40;1.40;;;3.08;100.00;93369.69;650382;216;32110;-76
2021/11/28 09:03:13;;;;;;;0.52;0.52;;;1.60;1.40;;;2.77;100.00;93368.42;647983;216;31487;-76
2021/11/28 09:05:57;;;;;;;0.88;0.88;;;1.40;1.40;;;2.75;100.00;93372.86;634879;212;32103;-77
2021/11/28 09:08:39;;;;;;;0.57;0.57;;;1.50;1.40;;;2.65;100.00;93373.21;618878;222;31818;-77
2021/11/28 09:11:20;;;;;;;0.40;0.30;;;1.40;1.40;;;3.07;100.00;93377.37;619195;222;31807;-77
2021/11/28 09:14:02;;;;;;;0.60;0.40;;;1.60;1.40;;;2.66;100.00;93378.81;647445;212;31495;-76
2021/11/28 09:16:47;;;;;;;0.55;0.55;;;1.40;1.40;;;2.63;100.00;93379.84;646216;216;31491;-76
2021/11/28 09:19:40;;;;;;;0.40;0.40;;;1.70;1.40;;;2.87;100.00;93376.95;646015;216;31498;-76
2021/11/28 09:22:11;;;;;;;0.60;0.50;;;2.00;1.40;;;3.25;100.00;93374.72;647087;216;31823;-77
2021/11/28 09:24:52;;;;;;;0.40;0.20;;;2.20;1.40;;;2.97;100.00;93379.63;619060;226;32360;-76
2021/11/28 09:27:34;;;;;;;0.40;0.20;;;1.90;1.40;;;2.79;100.00;93375.97;648039;216;31908;-77
2021/11/28 09:30:18;;;;;;;0.50;0.40;;;1.70;1.40;;;2.88;100.00;93376.55;647488;212;31508;-77
2021/11/28 09:33:00;;;;;;;0.65;0.35;;;1.70;1.40;;;2.77;100.00;93368.74;617793;226;34475;-77
2021/11/28 09:35:51;;;;;;;0.40;0.40;;;1.70;1.40;;;2.43;100.00;93371.81;647270;216;31680;-77
2021/11/28 09:38:39;;;;;;;0.60;0.35;;;1.40;1.40;;;2.33;100.00;93373.91;647096;212;31498;-76
2021/11/28 09:41:21;;;;;;;0.50;0.40;;;1.40;1.40;;;2.20;100.00;93377.19;618789;222;31888;-74
2021/11/28 09:44:08;;;;;;;2.40;0.80;;;1.30;1.40;;;1.95;100.00;93372.11;648057;212;32276;-77
2021/11/28 09:46:52;;;;;;;1.10;0.40;;;1.20;1.40;;;2.02;100.00;93373.78;647751;216;31774;-74
2021/11/28 09:49:37;;;;;;;0.60;0.60;;;1.20;1.40;;;2.19;100.00;93374.48;647659;212;32223;-75
2021/11/28 09:52:25;;;;;;;0.40;0.20;;;1.30;1.40;;;1.91;100.00;93374.67;642862;217;42525;-77
2021/11/28 09:55:12;;;;;;;0.70;0.70;;;1.10;1.40;;;1.78;100.00;93373.45;646710;212;32296;-73
2021/11/28 09:57:54;;;;;;;0.40;0.20;;;1.00;1.40;;;1.68;100.00;93371.78;643245;216;33078;-74
2021/11/28 10:00:35;;;;;;;1.10;0.80;;;0.90;1.40;;;1.59;100.00;93370.36;643595;216;32431;-75
2021/11/28 10:03:19;;;;;;;0.50;0.30;;;0.80;1.40;;;1.75;100.00;93369.13;646555;216;31516;-75
2021/11/28 10:06:07;;;;;;;1.50;0.40;;;0.90;1.40;;;1.69;100.00;93364.14;616674;222;32145;-73
2021/11/28 10:08:48;;;;;;;0.50;0.50;;;0.80;1.40;;;1.58;100.00;93366.22;618674;222;31809;-75
2021/11/28 10:11:55;;;;;;;0.40;0.20;;;0.80;1.40;;;1.61;100.00;93363.20;621953;222;31965;-76
2021/11/28 10:14:45;;;;;;;0.60;0.60;;;0.80;1.40;;;1.63;100.00;93367.33;647050;216;31551;-77
2021/11/28 10:17:25;;;;;;;0.40;0.30;;;0.70;1.40;;;1.44;100.00;93366.64;619856;222;32446;-76
2021/11/28 10:20:10;;;;;;;0.50;0.40;;;0.60;1.40;;;1.33;100.00;93362.06;633075;222;31670;-77
2021/11/28 10:22:57;;;;;;;0.40;0.40;;;0.50;1.40;;;1.38;100.00;93363.67;647794;216;31573;-75
2021/11/28 10:25:45;;;;;;;0.40;0.30;;;0.50;1.40;;;1.59;100.00;93359.89;646773;216;31488;-77
2021/11/28 10:28:29;;;;;;;0.40;0.30;;;0.60;1.40;;;1.53;100.00;93362.36;648589;216;31543;-75
2021/11/28 10:31:11;;;;;;;0.40;0.30;;;0.60;1.40;;;1.32;100.00;93360.44;645606;212;32047;-75
2021/11/28 10:36:02;;;;;;;0.90;0.70;;;0.50;1.40;;;1.37;100.00;93349.13;650482;216;31461;-76
2021/11/28 10:38:43;;;;;;;0.40;0.40;;;0.60;1.40;;;1.32;100.00;93353.61;648452;212;32333;-77
2021/11/28 10:41:30;;;;;;;0.80;0.80;;;0.50;1.40;;;1.31;100.00;93352.45;645400;216;32208;-75
2021/11/28 10:44:17;;;;;;;0.50;0.40;;;0.50;1.40;;;1.35;100.00;93349.84;647999;212;31673;-77
2021/11/28 10:47:12;;;;;;;0.40;0.40;;;0.50;1.40;;;1.43;100.00;93345.47;646528;216;31521;-75
2021/11/28 10:49:56;;;;;;;0.40;0.30;;;0.50;1.40;;;1.50;100.00;93343.58;641476;215;31849;-77
2021/11/28 10:55:16;;;;;;;0.70;0.30;;;0.60;1.40;;;1.62;100.00;93341.29;647601;212;31467;-76
2021/11/28 10:58:20;;;;;;;0.50;0.40;;;0.60;1.40;;;1.43;100.00;93338.80;617092;226;32079;-77
2021/11/28 11:01:06;;;;;;;0.40;0.40;;;0.60;1.40;;;1.46;100.00;93335.73;649794;216;31759;-78
2021/11/28 11:03:48;;;;;;;0.90;0.70;;;0.60;1.40;;;1.61;100.00;93339.88;617087;226;31806;-78
2021/11/28 11:06:36;;;;;;;1.00;0.37;;;0.70;1.40;;;1.88;100.00;93336.87;640866;216;32252;-75
2021/11/28 11:09:23;;;;;;;0.82;0.52;;;0.80;1.40;;;1.84;100.00;93338.25;619349;226;31817;-77
2021/11/28 11:14:53;;;;;;;1.00;0.50;;;0.90;1.40;;;2.17;100.00;93331.34;651610;216;31491;-77
2021/11/28 11:17:41;;;;;;;0.40;0.30;;;1.00;1.40;;;2.18;100.00;93335.05;648869;216;31505;-76
2021/11/28 11:20:17;;;;;;;0.60;0.35;;;1.00;1.40;;;2.24;100.00;93340.08;644263;216;31618;-77
2021/11/28 11:22:59;;;;;;;1.10;1.00;;;1.00;1.40;;;2.17;100.00;93336.80;647222;212;31950;-77
2021/11/28 11:25:46;;;;;;;2.22;1.55;;;1.00;1.40;;;2.01;100.00;93336.72;619460;222;31878;-76
2021/11/28 11:28:22;;;;;;;1.07;0.70;;;1.00;1.40;;;2.19;100.00;93340.23;648415;216;31688;-77
2021/11/28 11:31:13;;;;;;;0.70;0.70;;;1.10;1.40;;;2.40;100.00;93338.86;649955;216;32116;-78
2021/11/28 11:35:55;;;;;;;1.52;1.42;;;1.10;1.40;;;1.97;100.00;93341.58;646709;212;41967;-76
2021/11/28 11:38:40;;;;;;;0.60;0.55;;;1.10;1.40;;;2.03;100.00;93341.55;648724;216;31675;-78
2021/11/28 11:41:22;;;;;;;0.90;0.70;;;1.10;1.40;;;1.91;100.00;93346.14;618537;226;32219;-77
2021/11/28 11:44:04;;;;;;;0.60;0.50;;;1.10;1.40;;;1.75;100.00;93345.36;622166;226;32354;-77
2021/11/28 11:46:47;;;;;;;1.50;1.30;;;0.90;1.40;;;1.70;100.00;93345.80;620438;222;32008;-78
2021/11/28 11:49:34;;;;;;;0.47;0.47;;;0.90;1.40;;;1.73;100.00;93346.41;646926;216;31624;-75
2021/11/28 11:52:17;;;;;;;0.40;0.40;;;1.00;1.40;;;1.84;100.00;93345.58;647773;216;31537;-75
2021/11/28 11:55:10;;;;;;;0.43;0.30;;;1.00;1.40;;;1.81;100.00;93340.30;647115;216;31461;-77
2021/11/28 11:58:17;;;;;;;0.40;0.40;;;1.00;1.40;;;2.04;100.00;93333.61;648824;216;31478;-76
2021/11/28 12:01:04;;;;;;;0.90;0.80;;;1.00;1.40;;;1.88;100.00;93332.42;648416;212;31501;-77
2021/11/28 12:03:49;;;;;;;0.50;0.40;;;1.00;1.40;;;1.86;100.00;93333.09;648930;212;31521;-78
2021/11/28 12:06:53;;;;;;;1.40;1.30;;;1.10;1.40;;;1.96;100.00;93331.11;646045;216;31466;-76
2021/11/28 12:09:38;;;;;;;0.80;0.40;;;1.10;1.40;;;1.85;100.00;93328.53;646847;216;31568;-77
2021/11/28 12:12:21;;;;;;;0.40;0.22;;;1.00;1.40;;;1.84;100.00;93329.77;645318;212;32058;-77
2021/11/28 12:15:21;;;;;;;0.60;0.60;;;1.00;1.40;;;2.11;100.00;93327.62;646814;216;31804;-77
2021/11/28 12:18:02;;;;;;;3.17;0.73;;;1.20;1.40;;;2.53;100.00;93319.63;647226;212;31653;-76
2021/11/28 12:23:54;;;;;;;0.50;0.40;;;1.30;1.40;;;2.26;100.00;93317.30;645760;212;31520;-75
2021/11/28 12:26:46;;;;;;;0.55;0.40;;;1.30;1.40;;;2.43;100.00;93316.90;650272;216;31433;-77
2021/11/28 12:29:36;;;;;;;0.70;0.60;;;1.40;1.40;;;2.17;100.00;93313.21;648719;216;31589;-74